sensor_id;sensor_type;location;lat;lon;timestamp;P1;durP1;ratioP1;P2;durP2;ratioP2
50231;SDS011;36118;56.468;84.952;2022-12-17T00:05:08;59.65;;;22.75;;
50231;SDS011;36118;56.468;84.952;2022-12-17T00:10:30;92.20;;;28.60;;
50231;SDS011;36118;56.468;84.952;2022-12-17T00:15:51;82.47;;;25.20;;
50231;SDS011;36118;56.468;84.952;2022-12-17T00:21:13;95.30;;;30.55;;
50231;SDS011;36118;56.468;84.952;2022-12-17T00:26:34;88.18;;;29.65;;
50231;SDS011;36118;56.468;84.952;2022-12-17T00:31:57;111.47;;;35.03;;
50231;SDS011;36118;56.468;84.952;2022-12-17T00:37:18;94.63;;;29.15;;
50231;SDS011;36118;56.468;84.952;2022-12-17T00:43:03;78.30;;;29.80;;
50231;SDS011;36118;56.468;84.952;2022-12-17T00:48:32;72.47;;;28.70;;
50231;SDS011;36118;56.468;84.952;2022-12-17T00:53:53;90.72;;;28.70;;
50231;SDS011;36118;56.468;84.952;2022-12-17T00:59:14;77.80;;;24.20;;
50231;SDS011;36118;56.468;84.952;2022-12-17T01:04:37;87.47;;;24.08;;
50231;SDS011;36118;56.468;84.952;2022-12-17T01:09:58;96.60;;;33.87;;
50231;SDS011;36118;56.468;84.952;2022-12-17T01:15:19;69.70;;;22.93;;
50231;SDS011;36118;56.468;84.952;2022-12-17T01:20:41;99.93;;;32.13;;
50231;SDS011;36118;56.468;84.952;2022-12-17T01:26:02;111.90;;;37.63;;
50231;SDS011;36118;56.468;84.952;2022-12-17T01:31:23;103.07;;;31.87;;
50231;SDS011;36118;56.468;84.952;2022-12-17T01:36:44;78.33;;;27.23;;
50231;SDS011;36118;56.468;84.952;2022-12-17T01:42:09;59.73;;;20.80;;
50231;SDS011;36118;56.468;84.952;2022-12-17T01:47:33;75.10;;;27.13;;
50231;SDS011;36118;56.468;84.952;2022-12-17T01:52:58;61.75;;;22.90;;
50231;SDS011;36118;56.468;84.952;2022-12-17T01:58:21;130.82;;;29.20;;
50231;SDS011;36118;56.468;84.952;2022-12-17T02:03:41;67.70;;;18.53;;
50231;SDS011;36118;56.468;84.952;2022-12-17T02:09:06;90.80;;;28.33;;
50231;SDS011;36118;56.468;84.952;2022-12-17T02:14:55;13.35;;;5.82;;
50231;SDS011;36118;56.468;84.952;2022-12-17T02:21:03;68.22;;;24.75;;
50231;SDS011;36118;56.468;84.952;2022-12-17T02:31:38;67.40;;;23.33;;
50231;SDS011;36118;56.468;84.952;2022-12-17T02:37:01;96.65;;;23.83;;
50231;SDS011;36118;56.468;84.952;2022-12-17T02:42:22;140.57;;;39.37;;
50231;SDS011;36118;56.468;84.952;2022-12-17T02:47:46;63.35;;;24.40;;
50231;SDS011;36118;56.468;84.952;2022-12-17T02:53:08;77.78;;;25.23;;
50231;SDS011;36118;56.468;84.952;2022-12-17T02:58:30;74.85;;;26.10;;
50231;SDS011;36118;56.468;84.952;2022-12-17T03:03:52;67.97;;;24.35;;
50231;SDS011;36118;56.468;84.952;2022-12-17T03:09:13;111.22;;;32.25;;
50231;SDS011;36118;56.468;84.952;2022-12-17T03:14:34;90.83;;;30.37;;
50231;SDS011;36118;56.468;84.952;2022-12-17T03:19:56;81.43;;;24.43;;
50231;SDS011;36118;56.468;84.952;2022-12-17T03:25:17;104.27;;;31.30;;
50231;SDS011;36118;56.468;84.952;2022-12-17T03:36:00;76.72;;;25.67;;
50231;SDS011;36118;56.468;84.952;2022-12-17T03:41:22;86.97;;;31.27;;
50231;SDS011;36118;56.468;84.952;2022-12-17T03:46:44;104.35;;;35.15;;
50231;SDS011;36118;56.468;84.952;2022-12-17T03:52:05;98.47;;;32.00;;
50231;SDS011;36118;56.468;84.952;2022-12-17T03:57:26;87.63;;;25.47;;
50231;SDS011;36118;56.468;84.952;2022-12-17T04:02:47;60.47;;;22.98;;
50231;SDS011;36118;56.468;84.952;2022-12-17T04:08:09;92.77;;;32.57;;
50231;SDS011;36118;56.468;84.952;2022-12-17T04:13:30;94.38;;;34.47;;
50231;SDS011;36118;56.468;84.952;2022-12-17T04:18:51;147.50;;;56.60;;
50231;SDS011;36118;56.468;84.952;2022-12-17T04:24:12;87.77;;;30.57;;
50231;SDS011;36118;56.468;84.952;2022-12-17T04:29:34;94.60;;;36.63;;
50231;SDS011;36118;56.468;84.952;2022-12-17T04:34:55;110.57;;;34.60;;
50231;SDS011;36118;56.468;84.952;2022-12-17T04:40:16;100.97;;;33.70;;
50231;SDS011;36118;56.468;84.952;2022-12-17T04:45:37;63.88;;;20.85;;
50231;SDS011;36118;56.468;84.952;2022-12-17T04:50:59;73.97;;;21.60;;
50231;SDS011;36118;56.468;84.952;2022-12-17T04:56:37;83.93;;;26.95;;
50231;SDS011;36118;56.468;84.952;2022-12-17T05:01:58;63.23;;;19.83;;
50231;SDS011;36118;56.468;84.952;2022-12-17T05:07:19;97.70;;;32.97;;
50231;SDS011;36118;56.468;84.952;2022-12-17T05:12:40;90.07;;;34.70;;
50231;SDS011;36118;56.468;84.952;2022-12-17T05:18:06;83.47;;;29.40;;
50231;SDS011;36118;56.468;84.952;2022-12-17T05:23:27;107.70;;;33.13;;
50231;SDS011;36118;56.468;84.952;2022-12-17T05:28:52;83.97;;;30.07;;
50231;SDS011;36118;56.468;84.952;2022-12-17T05:34:17;107.68;;;34.65;;
50231;SDS011;36118;56.468;84.952;2022-12-17T05:39:38;71.07;;;25.90;;
50231;SDS011;36118;56.468;84.952;2022-12-17T05:44:59;89.78;;;28.63;;
50231;SDS011;36118;56.468;84.952;2022-12-17T05:50:21;134.98;;;51.22;;
50231;SDS011;36118;56.468;84.952;2022-12-17T05:55:56;88.68;;;28.77;;
50231;SDS011;36118;56.468;84.952;2022-12-17T06:01:17;64.77;;;23.33;;
50231;SDS011;36118;56.468;84.952;2022-12-17T06:06:38;107.05;;;33.28;;
50231;SDS011;36118;56.468;84.952;2022-12-17T06:12:00;133.57;;;54.40;;
50231;SDS011;36118;56.468;84.952;2022-12-17T06:17:21;133.15;;;44.28;;
50231;SDS011;36118;56.468;84.952;2022-12-17T06:22:42;132.40;;;47.55;;
50231;SDS011;36118;56.468;84.952;2022-12-17T06:28:03;104.20;;;33.63;;
50231;SDS011;36118;56.468;84.952;2022-12-17T06:33:25;101.32;;;34.03;;
50231;SDS011;36118;56.468;84.952;2022-12-17T06:38:46;87.35;;;32.90;;
50231;SDS011;36118;56.468;84.952;2022-12-17T06:44:07;116.57;;;41.38;;
50231;SDS011;36118;56.468;84.952;2022-12-17T06:49:28;83.95;;;28.70;;
50231;SDS011;36118;56.468;84.952;2022-12-17T06:54:49;135.52;;;47.78;;
50231;SDS011;36118;56.468;84.952;2022-12-17T07:00:11;94.90;;;33.47;;
50231;SDS011;36118;56.468;84.952;2022-12-17T07:05:32;75.47;;;25.15;;
50231;SDS011;36118;56.468;84.952;2022-12-17T07:10:53;101.13;;;35.35;;
50231;SDS011;36118;56.468;84.952;2022-12-17T07:16:15;120.40;;;45.42;;
50231;SDS011;36118;56.468;84.952;2022-12-17T07:21:36;95.75;;;33.70;;
50231;SDS011;36118;56.468;84.952;2022-12-17T07:26:57;110.20;;;38.53;;
50231;SDS011;36118;56.468;84.952;2022-12-17T07:32:18;80.80;;;25.88;;
50231;SDS011;36118;56.468;84.952;2022-12-17T07:37:39;84.60;;;27.83;;
50231;SDS011;36118;56.468;84.952;2022-12-17T07:43:08;90.55;;;28.15;;
50231;SDS011;36118;56.468;84.952;2022-12-17T07:48:33;101.15;;;34.38;;
50231;SDS011;36118;56.468;84.952;2022-12-17T07:53:54;108.25;;;33.88;;
50231;SDS011;36118;56.468;84.952;2022-12-17T07:59:15;104.32;;;34.58;;
50231;SDS011;36118;56.468;84.952;2022-12-17T08:04:36;89.85;;;30.05;;
50231;SDS011;36118;56.468;84.952;2022-12-17T08:09:58;102.80;;;38.13;;
50231;SDS011;36118;56.468;84.952;2022-12-17T08:15:19;124.53;;;47.85;;
50231;SDS011;36118;56.468;84.952;2022-12-17T08:20:40;94.22;;;31.35;;
50231;SDS011;36118;56.468;84.952;2022-12-17T08:26:02;102.15;;;35.28;;
50231;SDS011;36118;56.468;84.952;2022-12-17T08:31:25;120.70;;;41.67;;
50231;SDS011;36118;56.468;84.952;2022-12-17T08:36:46;107.43;;;37.33;;
50231;SDS011;36118;56.468;84.952;2022-12-17T08:42:07;93.78;;;30.92;;
50231;SDS011;36118;56.468;84.952;2022-12-17T08:47:28;121.07;;;45.53;;
50231;SDS011;36118;56.468;84.952;2022-12-17T08:52:56;115.18;;;41.80;;
50231;SDS011;36118;56.468;84.952;2022-12-17T08:58:18;108.95;;;43.55;;
50231;SDS011;36118;56.468;84.952;2022-12-17T09:03:39;89.68;;;32.38;;
50231;SDS011;36118;56.468;84.952;2022-12-17T09:09:01;103.88;;;35.78;;
50231;SDS011;36118;56.468;84.952;2022-12-17T09:14:22;96.90;;;33.22;;
50231;SDS011;36118;56.468;84.952;2022-12-17T09:19:43;112.97;;;37.10;;
50231;SDS011;36118;56.468;84.952;2022-12-17T09:25:04;137.82;;;47.75;;
50231;SDS011;36118;56.468;84.952;2022-12-17T09:30:25;130.27;;;43.55;;
50231;SDS011;36118;56.468;84.952;2022-12-17T09:35:46;139.55;;;49.70;;
50231;SDS011;36118;56.468;84.952;2022-12-17T09:41:17;86.00;;;28.00;;
50231;SDS011;36118;56.468;84.952;2022-12-17T09:47:36;115.20;;;39.15;;
50231;SDS011;36118;56.468;84.952;2022-12-17T09:52:49;127.30;;;44.17;;
50231;SDS011;36118;56.468;84.952;2022-12-17T09:58:13;96.72;;;31.80;;
50231;SDS011;36118;56.468;84.952;2022-12-17T10:03:42;113.53;;;37.05;;
50231;SDS011;36118;56.468;84.952;2022-12-17T10:09:08;156.32;;;55.30;;
50231;SDS011;36118;56.468;84.952;2022-12-17T10:14:32;92.28;;;27.45;;
50231;SDS011;36118;56.468;84.952;2022-12-17T10:19:53;102.82;;;30.65;;
50231;SDS011;36118;56.468;84.952;2022-12-17T10:25:19;92.22;;;28.73;;
50231;SDS011;36118;56.468;84.952;2022-12-17T10:30:41;88.78;;;28.17;;
50231;SDS011;36118;56.468;84.952;2022-12-17T10:36:04;103.15;;;31.58;;
50231;SDS011;36118;56.468;84.952;2022-12-17T10:41:27;109.15;;;33.92;;
50231;SDS011;36118;56.468;84.952;2022-12-17T10:46:54;106.85;;;36.40;;
50231;SDS011;36118;56.468;84.952;2022-12-17T10:57:50;132.57;;;47.45;;
50231;SDS011;36118;56.468;84.952;2022-12-17T11:03:22;111.97;;;34.83;;
50231;SDS011;36118;56.468;84.952;2022-12-17T11:08:45;81.70;;;27.08;;
50231;SDS011;36118;56.468;84.952;2022-12-17T11:14:07;87.28;;;30.50;;
50231;SDS011;36118;56.468;84.952;2022-12-17T11:24:59;141.10;;;49.90;;
50231;SDS011;36118;56.468;84.952;2022-12-17T11:30:24;123.95;;;43.05;;
50231;SDS011;36118;56.468;84.952;2022-12-17T11:47:24;69.78;;;21.45;;
50231;SDS011;36118;56.468;84.952;2022-12-17T11:53:12;78.35;;;25.48;;
50231;SDS011;36118;56.468;84.952;2022-12-17T11:58:54;91.95;;;26.13;;
50231;SDS011;36118;56.468;84.952;2022-12-17T12:04:34;111.88;;;31.52;;
50231;SDS011;36118;56.468;84.952;2022-12-17T12:10:08;138.15;;;44.08;;
50231;SDS011;36118;56.468;84.952;2022-12-17T12:15:52;101.82;;;34.20;;
50231;SDS011;36118;56.468;84.952;2022-12-17T12:33:29;137.13;;;41.60;;
50231;SDS011;36118;56.468;84.952;2022-12-17T12:38:56;117.35;;;34.38;;
50231;SDS011;36118;56.468;84.952;2022-12-17T12:44:20;132.65;;;40.28;;
50231;SDS011;36118;56.468;84.952;2022-12-17T12:50:02;116.35;;;36.38;;
50231;SDS011;36118;56.468;84.952;2022-12-17T12:55:40;126.70;;;37.88;;
50231;SDS011;36118;56.468;84.952;2022-12-17T13:01:02;128.80;;;39.70;;
50231;SDS011;36118;56.468;84.952;2022-12-17T13:06:37;118.60;;;37.40;;
50231;SDS011;36118;56.468;84.952;2022-12-17T13:11:49;121.63;;;36.80;;
50231;SDS011;36118;56.468;84.952;2022-12-17T13:32:32;117.05;;;35.28;;
50231;SDS011;36118;56.468;84.952;2022-12-17T13:38:01;126.40;;;35.03;;
50231;SDS011;36118;56.468;84.952;2022-12-17T13:43:20;121.13;;;32.22;;
50231;SDS011;36118;56.468;84.952;2022-12-17T13:48:26;119.57;;;36.20;;
50231;SDS011;36118;56.468;84.952;2022-12-17T13:53:30;132.73;;;35.83;;
50231;SDS011;36118;56.468;84.952;2022-12-17T13:58:36;146.63;;;44.63;;
50231;SDS011;36118;56.468;84.952;2022-12-17T14:03:42;143.68;;;45.55;;
50231;SDS011;36118;56.468;84.952;2022-12-17T14:09:11;135.20;;;43.85;;
50231;SDS011;36118;56.468;84.952;2022-12-17T14:19:35;143.82;;;41.90;;
50231;SDS011;36118;56.468;84.952;2022-12-17T14:24:38;152.70;;;45.03;;
50231;SDS011;36118;56.468;84.952;2022-12-17T14:29:44;137.68;;;40.03;;
50231;SDS011;36118;56.468;84.952;2022-12-17T14:34:47;135.30;;;40.38;;
50231;SDS011;36118;56.468;84.952;2022-12-17T14:39:59;127.45;;;42.15;;
50231;SDS011;36118;56.468;84.952;2022-12-17T14:45:05;153.82;;;43.22;;
50231;SDS011;36118;56.468;84.952;2022-12-17T15:00:31;134.40;;;40.33;;
50231;SDS011;36118;56.468;84.952;2022-12-17T15:05:35;141.85;;;42.45;;
50231;SDS011;36118;56.468;84.952;2022-12-17T15:15:40;160.10;;;49.28;;
50231;SDS011;36118;56.468;84.952;2022-12-17T15:20:43;151.07;;;48.97;;
50231;SDS011;36118;56.468;84.952;2022-12-17T15:25:47;148.55;;;48.53;;
50231;SDS011;36118;56.468;84.952;2022-12-17T15:30:50;106.75;;;35.88;;
50231;SDS011;36118;56.468;84.952;2022-12-17T15:41:00;111.25;;;33.20;;
50231;SDS011;36118;56.468;84.952;2022-12-17T15:46:23;129.52;;;37.80;;
50231;SDS011;36118;56.468;84.952;2022-12-17T15:51:26;103.18;;;30.20;;
50231;SDS011;36118;56.468;84.952;2022-12-17T15:56:29;135.40;;;43.35;;
50231;SDS011;36118;56.468;84.952;2022-12-17T16:06:35;117.18;;;33.80;;
50231;SDS011;36118;56.468;84.952;2022-12-17T16:21:43;126.72;;;38.10;;
50231;SDS011;36118;56.468;84.952;2022-12-17T16:26:48;125.45;;;37.58;;
50231;SDS011;36118;56.468;84.952;2022-12-17T16:31:50;143.38;;;42.47;;
50231;SDS011;36118;56.468;84.952;2022-12-17T16:36:53;154.00;;;43.70;;
50231;SDS011;36118;56.468;84.952;2022-12-17T16:41:56;144.60;;;44.00;;
50231;SDS011;36118;56.468;84.952;2022-12-17T16:57:04;191.13;;;58.55;;
50231;SDS011;36118;56.468;84.952;2022-12-17T17:02:13;249.43;;;76.22;;
50231;SDS011;36118;56.468;84.952;2022-12-17T17:07:17;202.80;;;61.13;;
50231;SDS011;36118;56.468;84.952;2022-12-17T17:12:19;183.90;;;55.03;;
50231;SDS011;36118;56.468;84.952;2022-12-17T17:22:45;162.73;;;54.50;;
50231;SDS011;36118;56.468;84.952;2022-12-17T17:27:47;111.82;;;36.53;;
50231;SDS011;36118;56.468;84.952;2022-12-17T17:32:50;185.88;;;67.95;;
50231;SDS011;36118;56.468;84.952;2022-12-17T17:37:53;130.77;;;45.97;;
50231;SDS011;36118;56.468;84.952;2022-12-17T17:42:55;149.88;;;50.15;;
50231;SDS011;36118;56.468;84.952;2022-12-17T17:53:01;122.05;;;37.88;;
50231;SDS011;36118;56.468;84.952;2022-12-17T17:58:03;140.63;;;39.20;;
50231;SDS011;36118;56.468;84.952;2022-12-17T18:03:06;130.43;;;38.60;;
50231;SDS011;36118;56.468;84.952;2022-12-17T18:13:11;154.30;;;47.97;;
50231;SDS011;36118;56.468;84.952;2022-12-17T18:18:33;136.07;;;41.50;;
50231;SDS011;36118;56.468;84.952;2022-12-17T18:23:36;178.75;;;55.40;;
50231;SDS011;36118;56.468;84.952;2022-12-17T18:28:39;121.13;;;37.95;;
50231;SDS011;36118;56.468;84.952;2022-12-17T18:33:44;135.10;;;40.92;;
50231;SDS011;36118;56.468;84.952;2022-12-17T18:38:55;127.93;;;37.30;;
50231;SDS011;36118;56.468;84.952;2022-12-17T18:44:00;132.20;;;38.25;;
50231;SDS011;36118;56.468;84.952;2022-12-17T18:49:06;126.93;;;37.60;;
50231;SDS011;36118;56.468;84.952;2022-12-17T18:54:13;117.43;;;34.38;;
50231;SDS011;36118;56.468;84.952;2022-12-17T18:59:18;172.50;;;52.97;;
50231;SDS011;36118;56.468;84.952;2022-12-17T19:04:29;186.60;;;60.53;;
50231;SDS011;36118;56.468;84.952;2022-12-17T19:09:34;101.50;;;33.33;;
50231;SDS011;36118;56.468;84.952;2022-12-17T19:14:37;166.80;;;50.80;;
50231;SDS011;36118;56.468;84.952;2022-12-17T19:19:40;194.57;;;60.83;;
50231;SDS011;36118;56.468;84.952;2022-12-17T19:24:42;165.38;;;47.38;;
50231;SDS011;36118;56.468;84.952;2022-12-17T19:29:45;196.77;;;57.78;;
50231;SDS011;36118;56.468;84.952;2022-12-17T19:34:50;215.45;;;72.13;;
50231;SDS011;36118;56.468;84.952;2022-12-17T19:44:56;196.13;;;61.47;;
50231;SDS011;36118;56.468;84.952;2022-12-17T19:49:58;158.65;;;51.05;;
50231;SDS011;36118;56.468;84.952;2022-12-17T19:55:01;155.85;;;45.88;;
50231;SDS011;36118;56.468;84.952;2022-12-17T20:00:04;174.60;;;54.05;;
50231;SDS011;36118;56.468;84.952;2022-12-17T20:05:13;126.97;;;37.65;;
50231;SDS011;36118;56.468;84.952;2022-12-17T20:10:16;166.48;;;47.05;;
50231;SDS011;36118;56.468;84.952;2022-12-17T20:15:18;210.25;;;69.63;;
50231;SDS011;36118;56.468;84.952;2022-12-17T20:20:21;163.90;;;50.17;;
50231;SDS011;36118;56.468;84.952;2022-12-17T20:25:24;205.30;;;69.85;;
50231;SDS011;36118;56.468;84.952;2022-12-17T20:30:26;193.43;;;65.47;;
50231;SDS011;36118;56.468;84.952;2022-12-17T20:35:29;159.55;;;53.33;;
50231;SDS011;36118;56.468;84.952;2022-12-17T20:40:32;241.70;;;86.20;;
50231;SDS011;36118;56.468;84.952;2022-12-17T20:45:35;211.13;;;73.72;;
50231;SDS011;36118;56.468;84.952;2022-12-17T20:50:38;171.23;;;58.70;;
50231;SDS011;36118;56.468;84.952;2022-12-17T20:55:42;144.65;;;44.95;;
50231;SDS011;36118;56.468;84.952;2022-12-17T21:10:54;70.25;;;25.35;;
50231;SDS011;36118;56.468;84.952;2022-12-17T21:15:58;90.82;;;24.48;;
50231;SDS011;36118;56.468;84.952;2022-12-17T21:21:04;144.57;;;46.58;;
50231;SDS011;36118;56.468;84.952;2022-12-17T21:26:18;158.32;;;49.67;;
50231;SDS011;36118;56.468;84.952;2022-12-17T21:31:27;166.98;;;58.90;;
50231;SDS011;36118;56.468;84.952;2022-12-17T21:36:32;156.82;;;48.00;;
50231;SDS011;36118;56.468;84.952;2022-12-17T21:41:37;196.05;;;72.70;;
50231;SDS011;36118;56.468;84.952;2022-12-17T21:46:45;201.60;;;74.90;;
50231;SDS011;36118;56.468;84.952;2022-12-17T21:51:51;95.75;;;32.47;;
50231;SDS011;36118;56.468;84.952;2022-12-17T22:06:58;187.38;;;56.67;;
50231;SDS011;36118;56.468;84.952;2022-12-17T22:12:11;135.60;;;40.35;;
50231;SDS011;36118;56.468;84.952;2022-12-17T22:17:32;169.88;;;49.05;;
50231;SDS011;36118;56.468;84.952;2022-12-17T22:22:35;174.10;;;50.25;;
50231;SDS011;36118;56.468;84.952;2022-12-17T22:27:38;164.15;;;48.25;;
50231;SDS011;36118;56.468;84.952;2022-12-17T22:32:41;171.77;;;56.38;;
50231;SDS011;36118;56.468;84.952;2022-12-17T22:38:15;155.57;;;52.47;;
50231;SDS011;36118;56.468;84.952;2022-12-17T22:43:38;164.80;;;56.95;;
50231;SDS011;36118;56.468;84.952;2022-12-17T22:49:00;133.40;;;45.92;;
50231;SDS011;36118;56.468;84.952;2022-12-17T22:54:04;115.43;;;37.67;;
50231;SDS011;36118;56.468;84.952;2022-12-17T22:59:08;113.57;;;36.78;;
50231;SDS011;36118;56.468;84.952;2022-12-17T23:09:22;148.15;;;52.67;;
50231;SDS011;36118;56.468;84.952;2022-12-17T23:14:25;170.85;;;63.67;;
50231;SDS011;36118;56.468;84.952;2022-12-17T23:19:28;163.60;;;57.95;;
50231;SDS011;36118;56.468;84.952;2022-12-17T23:29:33;171.88;;;65.20;;
50231;SDS011;36118;56.468;84.952;2022-12-17T23:34:36;141.77;;;47.95;;
50231;SDS011;36118;56.468;84.952;2022-12-17T23:39:39;153.98;;;54.75;;
50231;SDS011;36118;56.468;84.952;2022-12-17T23:44:41;135.27;;;46.05;;
50231;SDS011;36118;56.468;84.952;2022-12-17T23:49:44;120.88;;;45.78;;
50231;SDS011;36118;56.468;84.952;2022-12-17T23:54:47;164.88;;;60.72;;
50231;SDS011;36118;56.468;84.952;2022-12-17T23:59:49;105.78;;;41.53;;
